sensor_id;sensor_type;location;lat;lon;timestamp;P1;durP1;ratioP1;P2;durP2;ratioP2
21681;SDS011;11002;48.256;10.084;2022-07-18T00:01:59;1.60;;;0.90;;
21681;SDS011;11002;48.256;10.084;2022-07-18T00:04:28;0.73;;;0.73;;
21681;SDS011;11002;48.256;10.084;2022-07-18T00:06:56;0.57;;;0.57;;
21681;SDS011;11002;48.256;10.084;2022-07-18T00:09:23;0.82;;;0.80;;
21681;SDS011;11002;48.256;10.084;2022-07-18T00:11:51;0.68;;;0.68;;
21681;SDS011;11002;48.256;10.084;2022-07-18T00:14:20;0.68;;;0.68;;
21681;SDS011;11002;48.256;10.084;2022-07-18T00:16:48;0.70;;;0.70;;
21681;SDS011;11002;48.256;10.084;2022-07-18T00:19:17;0.93;;;0.60;;
21681;SDS011;11002;48.256;10.084;2022-07-18T00:21:45;0.82;;;0.80;;
21681;SDS011;11002;48.256;10.084;2022-07-18T00:24:12;0.60;;;0.60;;
21681;SDS011;11002;48.256;10.084;2022-07-18T00:26:40;0.70;;;0.70;;
21681;SDS011;11002;48.256;10.084;2022-07-18T00:29:07;1.00;;;0.80;;
21681;SDS011;11002;48.256;10.084;2022-07-18T00:31:35;1.38;;;0.75;;
21681;SDS011;11002;48.256;10.084;2022-07-18T00:34:03;0.70;;;0.70;;
21681;SDS011;11002;48.256;10.084;2022-07-18T00:36:32;0.70;;;0.60;;
21681;SDS011;11002;48.256;10.084;2022-07-18T00:39:00;0.50;;;0.50;;
21681;SDS011;11002;48.256;10.084;2022-07-18T00:41:27;0.80;;;0.80;;
21681;SDS011;11002;48.256;10.084;2022-07-18T00:43:55;0.70;;;0.70;;
21681;SDS011;11002;48.256;10.084;2022-07-18T00:46:23;1.45;;;0.80;;
21681;SDS011;11002;48.256;10.084;2022-07-18T00:48:52;0.70;;;0.70;;
21681;SDS011;11002;48.256;10.084;2022-07-18T00:51:20;1.10;;;0.70;;
21681;SDS011;11002;48.256;10.084;2022-07-18T00:53:50;1.27;;;0.93;;
21681;SDS011;11002;48.256;10.084;2022-07-18T00:56:18;0.70;;;0.70;;
21681;SDS011;11002;48.256;10.084;2022-07-18T00:58:46;0.70;;;0.70;;
21681;SDS011;11002;48.256;10.084;2022-07-18T01:01:14;0.80;;;0.80;;
21681;SDS011;11002;48.256;10.084;2022-07-18T01:06:26;0.82;;;0.82;;
21681;SDS011;11002;48.256;10.084;2022-07-18T01:08:55;0.70;;;0.70;;
21681;SDS011;11002;48.256;10.084;2022-07-18T01:11:24;0.80;;;0.80;;
21681;SDS011;11002;48.256;10.084;2022-07-18T01:13:51;0.80;;;0.80;;
21681;SDS011;11002;48.256;10.084;2022-07-18T01:16:20;0.80;;;0.80;;
21681;SDS011;11002;48.256;10.084;2022-07-18T01:18:48;0.70;;;0.70;;
21681;SDS011;11002;48.256;10.084;2022-07-18T01:21:18;0.90;;;0.90;;
21681;SDS011;11002;48.256;10.084;2022-07-18T01:23:45;0.80;;;0.80;;
21681;SDS011;11002;48.256;10.084;2022-07-18T01:26:13;0.98;;;0.90;;
21681;SDS011;11002;48.256;10.084;2022-07-18T01:28:41;0.70;;;0.70;;
21681;SDS011;11002;48.256;10.084;2022-07-18T01:31:09;0.95;;;0.80;;
21681;SDS011;11002;48.256;10.084;2022-07-18T01:33:38;0.77;;;0.77;;
21681;SDS011;11002;48.256;10.084;2022-07-18T01:36:06;0.73;;;0.73;;
21681;SDS011;11002;48.256;10.084;2022-07-18T01:38:36;0.63;;;0.63;;
21681;SDS011;11002;48.256;10.084;2022-07-18T01:41:04;0.70;;;0.70;;
21681;SDS011;11002;48.256;10.084;2022-07-18T01:43:32;0.80;;;0.80;;
21681;SDS011;11002;48.256;10.084;2022-07-18T01:46:03;0.80;;;0.80;;
21681;SDS011;11002;48.256;10.084;2022-07-18T01:48:30;0.70;;;0.70;;
21681;SDS011;11002;48.256;10.084;2022-07-18T01:50:58;0.95;;;0.82;;
21681;SDS011;11002;48.256;10.084;2022-07-18T01:53:26;0.93;;;0.77;;
21681;SDS011;11002;48.256;10.084;2022-07-18T01:55:54;0.95;;;0.88;;
21681;SDS011;11002;48.256;10.084;2022-07-18T01:58:22;0.90;;;0.90;;
21681;SDS011;11002;48.256;10.084;2022-07-18T02:00:49;0.80;;;0.80;;
21681;SDS011;11002;48.256;10.084;2022-07-18T02:03:17;1.52;;;0.80;;
21681;SDS011;11002;48.256;10.084;2022-07-18T02:05:44;0.82;;;0.82;;
21681;SDS011;11002;48.256;10.084;2022-07-18T02:08:11;0.73;;;0.73;;
21681;SDS011;11002;48.256;10.084;2022-07-18T02:10:39;0.80;;;0.80;;
21681;SDS011;11002;48.256;10.084;2022-07-18T02:13:08;0.80;;;0.68;;
21681;SDS011;11002;48.256;10.084;2022-07-18T02:15:35;0.98;;;0.88;;
21681;SDS011;11002;48.256;10.084;2022-07-18T02:18:03;1.10;;;0.90;;
21681;SDS011;11002;48.256;10.084;2022-07-18T02:20:30;0.80;;;0.80;;
21681;SDS011;11002;48.256;10.084;2022-07-18T02:22:58;0.90;;;0.90;;
21681;SDS011;11002;48.256;10.084;2022-07-18T02:25:25;0.60;;;0.60;;
21681;SDS011;11002;48.256;10.084;2022-07-18T02:27:54;0.77;;;0.77;;
21681;SDS011;11002;48.256;10.084;2022-07-18T02:30:23;1.02;;;0.90;;
21681;SDS011;11002;48.256;10.084;2022-07-18T02:32:50;0.80;;;0.80;;
21681;SDS011;11002;48.256;10.084;2022-07-18T02:35:18;1.13;;;0.88;;
21681;SDS011;11002;48.256;10.084;2022-07-18T02:37:45;0.82;;;0.77;;
21681;SDS011;11002;48.256;10.084;2022-07-18T02:40:12;0.70;;;0.70;;
21681;SDS011;11002;48.256;10.084;2022-07-18T02:42:40;0.73;;;0.70;;
21681;SDS011;11002;48.256;10.084;2022-07-18T02:45:07;0.82;;;0.80;;
21681;SDS011;11002;48.256;10.084;2022-07-18T02:47:37;0.80;;;0.80;;
21681;SDS011;11002;48.256;10.084;2022-07-18T02:50:05;0.80;;;0.80;;
21681;SDS011;11002;48.256;10.084;2022-07-18T02:52:33;0.98;;;0.80;;
21681;SDS011;11002;48.256;10.084;2022-07-18T02:55:00;0.80;;;0.80;;
21681;SDS011;11002;48.256;10.084;2022-07-18T02:57:28;0.77;;;0.77;;
21681;SDS011;11002;48.256;10.084;2022-07-18T02:59:56;0.80;;;0.80;;
21681;SDS011;11002;48.256;10.084;2022-07-18T03:02:24;0.80;;;0.80;;
21681;SDS011;11002;48.256;10.084;2022-07-18T03:04:53;0.80;;;0.80;;
21681;SDS011;11002;48.256;10.084;2022-07-18T03:07:20;1.70;;;1.60;;
21681;SDS011;11002;48.256;10.084;2022-07-18T03:09:48;1.15;;;0.98;;
21681;SDS011;11002;48.256;10.084;2022-07-18T03:12:16;0.90;;;0.90;;
21681;SDS011;11002;48.256;10.084;2022-07-18T03:14:44;1.08;;;1.08;;
21681;SDS011;11002;48.256;10.084;2022-07-18T03:17:11;0.88;;;0.88;;
21681;SDS011;11002;48.256;10.084;2022-07-18T03:19:39;0.70;;;0.70;;
21681;SDS011;11002;48.256;10.084;2022-07-18T03:22:07;0.85;;;0.85;;
21681;SDS011;11002;48.256;10.084;2022-07-18T03:24:35;0.68;;;0.68;;
21681;SDS011;11002;48.256;10.084;2022-07-18T03:27:03;1.02;;;1.00;;
21681;SDS011;11002;48.256;10.084;2022-07-18T03:29:30;0.93;;;0.93;;
21681;SDS011;11002;48.256;10.084;2022-07-18T03:31:58;1.02;;;0.93;;
21681;SDS011;11002;48.256;10.084;2022-07-18T03:34:26;0.90;;;0.90;;
21681;SDS011;11002;48.256;10.084;2022-07-18T03:36:53;0.90;;;0.90;;
21681;SDS011;11002;48.256;10.084;2022-07-18T03:39:22;0.90;;;0.90;;
21681;SDS011;11002;48.256;10.084;2022-07-18T03:41:49;0.65;;;0.65;;
21681;SDS011;11002;48.256;10.084;2022-07-18T03:44:17;1.45;;;0.90;;
21681;SDS011;11002;48.256;10.084;2022-07-18T03:46:45;1.83;;;1.08;;
21681;SDS011;11002;48.256;10.084;2022-07-18T03:49:12;0.90;;;0.90;;
21681;SDS011;11002;48.256;10.084;2022-07-18T03:51:40;0.90;;;0.73;;
21681;SDS011;11002;48.256;10.084;2022-07-18T03:54:07;0.93;;;0.80;;
21681;SDS011;11002;48.256;10.084;2022-07-18T03:56:36;0.90;;;0.90;;
21681;SDS011;11002;48.256;10.084;2022-07-18T03:59:04;1.38;;;1.13;;
21681;SDS011;11002;48.256;10.084;2022-07-18T04:01:31;1.15;;;1.00;;
21681;SDS011;11002;48.256;10.084;2022-07-18T04:03:59;0.82;;;0.82;;
21681;SDS011;11002;48.256;10.084;2022-07-18T04:06:26;0.80;;;0.80;;
21681;SDS011;11002;48.256;10.084;2022-07-18T04:08:54;0.90;;;0.90;;
21681;SDS011;11002;48.256;10.084;2022-07-18T04:11:21;0.93;;;0.82;;
21681;SDS011;11002;48.256;10.084;2022-07-18T04:13:50;0.85;;;0.85;;
21681;SDS011;11002;48.256;10.084;2022-07-18T04:16:18;0.77;;;0.77;;
21681;SDS011;11002;48.256;10.084;2022-07-18T04:18:46;0.90;;;0.88;;
21681;SDS011;11002;48.256;10.084;2022-07-18T04:21:14;1.20;;;1.10;;
21681;SDS011;11002;48.256;10.084;2022-07-18T04:23:41;0.80;;;0.80;;
21681;SDS011;11002;48.256;10.084;2022-07-18T04:26:09;1.38;;;1.08;;
21681;SDS011;11002;48.256;10.084;2022-07-18T04:28:36;1.10;;;1.00;;
21681;SDS011;11002;48.256;10.084;2022-07-18T04:31:05;0.80;;;0.80;;
21681;SDS011;11002;48.256;10.084;2022-07-18T04:33:32;1.05;;;0.95;;
21681;SDS011;11002;48.256;10.084;2022-07-18T04:36:00;0.90;;;0.90;;
21681;SDS011;11002;48.256;10.084;2022-07-18T04:38:28;1.30;;;1.20;;
21681;SDS011;11002;48.256;10.084;2022-07-18T04:40:59;0.90;;;0.90;;
21681;SDS011;11002;48.256;10.084;2022-07-18T04:43:26;1.15;;;1.00;;
21681;SDS011;11002;48.256;10.084;2022-07-18T04:45:54;1.02;;;1.00;;
21681;SDS011;11002;48.256;10.084;2022-07-18T04:48:22;1.00;;;1.00;;
21681;SDS011;11002;48.256;10.084;2022-07-18T04:50:50;2.10;;;1.10;;
21681;SDS011;11002;48.256;10.084;2022-07-18T04:53:17;1.38;;;1.27;;
21681;SDS011;11002;48.256;10.084;2022-07-18T04:55:45;1.00;;;1.00;;
21681;SDS011;11002;48.256;10.084;2022-07-18T04:58:12;1.10;;;1.10;;
21681;SDS011;11002;48.256;10.084;2022-07-18T05:00:40;1.17;;;1.10;;
21681;SDS011;11002;48.256;10.084;2022-07-18T05:03:07;1.30;;;1.20;;
21681;SDS011;11002;48.256;10.084;2022-07-18T05:05:36;1.20;;;1.05;;
21681;SDS011;11002;48.256;10.084;2022-07-18T05:08:04;1.02;;;1.00;;
21681;SDS011;11002;48.256;10.084;2022-07-18T05:10:31;1.35;;;1.25;;
21681;SDS011;11002;48.256;10.084;2022-07-18T05:12:59;1.65;;;1.30;;
21681;SDS011;11002;48.256;10.084;2022-07-18T05:15:27;1.20;;;1.20;;
21681;SDS011;11002;48.256;10.084;2022-07-18T05:17:54;1.00;;;1.00;;
21681;SDS011;11002;48.256;10.084;2022-07-18T05:20:22;1.27;;;1.17;;
21681;SDS011;11002;48.256;10.084;2022-07-18T05:22:53;3.25;;;1.58;;
21681;SDS011;11002;48.256;10.084;2022-07-18T05:25:22;8.00;;;1.90;;
21681;SDS011;11002;48.256;10.084;2022-07-18T05:27:50;5.10;;;1.92;;
21681;SDS011;11002;48.256;10.084;2022-07-18T05:30:19;6.28;;;1.70;;
21681;SDS011;11002;48.256;10.084;2022-07-18T05:32:47;2.47;;;1.65;;
21681;SDS011;11002;48.256;10.084;2022-07-18T05:35:15;4.38;;;1.40;;
21681;SDS011;11002;48.256;10.084;2022-07-18T05:37:42;4.68;;;1.65;;
21681;SDS011;11002;48.256;10.084;2022-07-18T05:40:12;2.40;;;1.60;;
21681;SDS011;11002;48.256;10.084;2022-07-18T05:42:40;4.65;;;2.13;;
21681;SDS011;11002;48.256;10.084;2022-07-18T05:45:08;3.67;;;1.85;;
21681;SDS011;11002;48.256;10.084;2022-07-18T05:47:36;6.35;;;1.45;;
21681;SDS011;11002;48.256;10.084;2022-07-18T05:50:04;5.80;;;1.70;;
21681;SDS011;11002;48.256;10.084;2022-07-18T05:52:32;3.50;;;1.75;;
21681;SDS011;11002;48.256;10.084;2022-07-18T05:55:00;2.92;;;1.85;;
21681;SDS011;11002;48.256;10.084;2022-07-18T05:57:28;5.30;;;1.48;;
21681;SDS011;11002;48.256;10.084;2022-07-18T05:59:56;4.68;;;1.70;;
21681;SDS011;11002;48.256;10.084;2022-07-18T06:02:23;2.33;;;1.60;;
21681;SDS011;11002;48.256;10.084;2022-07-18T06:04:51;1.67;;;1.45;;
21681;SDS011;11002;48.256;10.084;2022-07-18T06:07:18;3.20;;;1.35;;
21681;SDS011;11002;48.256;10.084;2022-07-18T06:09:45;2.47;;;1.60;;
21681;SDS011;11002;48.256;10.084;2022-07-18T06:12:13;1.73;;;1.63;;
21681;SDS011;11002;48.256;10.084;2022-07-18T06:14:43;3.97;;;1.83;;
21681;SDS011;11002;48.256;10.084;2022-07-18T06:17:11;3.30;;;1.70;;
21681;SDS011;11002;48.256;10.084;2022-07-18T06:19:38;4.00;;;1.92;;
21681;SDS011;11002;48.256;10.084;2022-07-18T06:22:07;2.38;;;1.83;;
21681;SDS011;11002;48.256;10.084;2022-07-18T06:24:35;2.95;;;1.40;;
21681;SDS011;11002;48.256;10.084;2022-07-18T06:27:02;4.53;;;1.83;;
21681;SDS011;11002;48.256;10.084;2022-07-18T06:29:30;1.52;;;1.40;;
21681;SDS011;11002;48.256;10.084;2022-07-18T06:31:58;2.38;;;1.65;;
21681;SDS011;11002;48.256;10.084;2022-07-18T06:34:26;2.47;;;1.63;;
21681;SDS011;11002;48.256;10.084;2022-07-18T06:36:53;6.55;;;2.13;;
21681;SDS011;11002;48.256;10.084;2022-07-18T06:39:20;2.15;;;1.60;;
21681;SDS011;11002;48.256;10.084;2022-07-18T06:41:48;1.92;;;1.65;;
21681;SDS011;11002;48.256;10.084;2022-07-18T06:44:16;3.28;;;1.73;;
21681;SDS011;11002;48.256;10.084;2022-07-18T06:46:44;2.47;;;1.70;;
21681;SDS011;11002;48.256;10.084;2022-07-18T06:49:12;3.65;;;1.65;;
21681;SDS011;11002;48.256;10.084;2022-07-18T06:51:41;3.88;;;1.65;;
21681;SDS011;11002;48.256;10.084;2022-07-18T06:54:08;3.80;;;1.73;;
21681;SDS011;11002;48.256;10.084;2022-07-18T06:56:35;6.90;;;1.90;;
21681;SDS011;11002;48.256;10.084;2022-07-18T06:59:03;2.03;;;1.83;;
21681;SDS011;11002;48.256;10.084;2022-07-18T07:01:30;5.50;;;1.50;;
21681;SDS011;11002;48.256;10.084;2022-07-18T07:03:58;2.47;;;1.70;;
21681;SDS011;11002;48.256;10.084;2022-07-18T07:06:26;2.50;;;1.75;;
21681;SDS011;11002;48.256;10.084;2022-07-18T07:08:54;1.63;;;1.30;;
21681;SDS011;11002;48.256;10.084;2022-07-18T07:11:21;3.05;;;1.45;;
21681;SDS011;11002;48.256;10.084;2022-07-18T07:13:49;4.45;;;1.35;;
21681;SDS011;11002;48.256;10.084;2022-07-18T07:16:16;2.95;;;1.55;;
21681;SDS011;11002;48.256;10.084;2022-07-18T07:18:43;1.60;;;1.42;;
21681;SDS011;11002;48.256;10.084;2022-07-18T07:21:11;3.33;;;1.45;;
21681;SDS011;11002;48.256;10.084;2022-07-18T07:23:40;3.45;;;1.50;;
21681;SDS011;11002;48.256;10.084;2022-07-18T07:26:07;4.43;;;1.77;;
21681;SDS011;11002;48.256;10.084;2022-07-18T07:28:34;5.13;;;1.77;;
21681;SDS011;11002;48.256;10.084;2022-07-18T07:31:02;3.33;;;1.80;;
21681;SDS011;11002;48.256;10.084;2022-07-18T07:33:31;2.30;;;1.65;;
21681;SDS011;11002;48.256;10.084;2022-07-18T07:35:59;2.88;;;1.70;;
21681;SDS011;11002;48.256;10.084;2022-07-18T07:38:26;3.13;;;1.92;;
21681;SDS011;11002;48.256;10.084;2022-07-18T07:40:56;5.90;;;1.67;;
21681;SDS011;11002;48.256;10.084;2022-07-18T07:43:26;3.60;;;2.10;;
21681;SDS011;11002;48.256;10.084;2022-07-18T07:45:54;2.47;;;1.90;;
21681;SDS011;11002;48.256;10.084;2022-07-18T07:48:22;4.93;;;1.60;;
21681;SDS011;11002;48.256;10.084;2022-07-18T07:50:50;2.40;;;1.77;;
21681;SDS011;11002;48.256;10.084;2022-07-18T07:53:17;2.55;;;1.40;;
21681;SDS011;11002;48.256;10.084;2022-07-18T07:55:45;2.63;;;1.52;;
21681;SDS011;11002;48.256;10.084;2022-07-18T07:58:13;5.30;;;1.75;;
21681;SDS011;11002;48.256;10.084;2022-07-18T08:00:41;4.95;;;1.67;;
21681;SDS011;11002;48.256;10.084;2022-07-18T08:03:08;7.70;;;1.70;;
21681;SDS011;11002;48.256;10.084;2022-07-18T08:05:36;1.63;;;1.50;;
21681;SDS011;11002;48.256;10.084;2022-07-18T08:08:10;2.83;;;1.77;;
21681;SDS011;11002;48.256;10.084;2022-07-18T08:10:37;2.08;;;1.52;;
21681;SDS011;11002;48.256;10.084;2022-07-18T08:13:05;2.97;;;1.70;;
21681;SDS011;11002;48.256;10.084;2022-07-18T08:15:34;2.90;;;1.50;;
21681;SDS011;11002;48.256;10.084;2022-07-18T08:18:02;3.42;;;1.60;;
21681;SDS011;11002;48.256;10.084;2022-07-18T08:20:29;3.05;;;1.30;;
21681;SDS011;11002;48.256;10.084;2022-07-18T08:22:59;1.95;;;1.40;;
21681;SDS011;11002;48.256;10.084;2022-07-18T08:25:28;1.88;;;1.40;;
21681;SDS011;11002;48.256;10.084;2022-07-18T08:27:56;2.67;;;1.65;;
21681;SDS011;11002;48.256;10.084;2022-07-18T08:30:24;4.32;;;1.55;;
21681;SDS011;11002;48.256;10.084;2022-07-18T08:32:54;3.40;;;1.30;;
21681;SDS011;11002;48.256;10.084;2022-07-18T08:35:22;4.43;;;1.40;;
21681;SDS011;11002;48.256;10.084;2022-07-18T08:37:49;2.22;;;1.45;;
21681;SDS011;11002;48.256;10.084;2022-07-18T08:40:17;1.95;;;1.40;;
21681;SDS011;11002;48.256;10.084;2022-07-18T08:42:44;2.70;;;1.17;;
21681;SDS011;11002;48.256;10.084;2022-07-18T08:45:13;5.03;;;1.88;;
21681;SDS011;11002;48.256;10.084;2022-07-18T08:47:41;3.40;;;1.50;;
21681;SDS011;11002;48.256;10.084;2022-07-18T08:50:12;2.47;;;1.40;;
21681;SDS011;11002;48.256;10.084;2022-07-18T08:52:40;4.90;;;1.50;;
21681;SDS011;11002;48.256;10.084;2022-07-18T08:55:08;4.28;;;1.50;;
21681;SDS011;11002;48.256;10.084;2022-07-18T08:57:39;1.73;;;1.20;;
21681;SDS011;11002;48.256;10.084;2022-07-18T09:00:09;3.40;;;1.55;;
21681;SDS011;11002;48.256;10.084;2022-07-18T09:02:37;2.50;;;1.45;;
21681;SDS011;11002;48.256;10.084;2022-07-18T09:05:05;2.97;;;1.30;;
21681;SDS011;11002;48.256;10.084;2022-07-18T09:07:44;4.22;;;1.45;;
21681;SDS011;11002;48.256;10.084;2022-07-18T09:10:12;2.38;;;1.27;;
21681;SDS011;11002;48.256;10.084;2022-07-18T09:12:39;1.98;;;1.38;;
21681;SDS011;11002;48.256;10.084;2022-07-18T09:15:24;1.35;;;1.25;;
21681;SDS011;11002;48.256;10.084;2022-07-18T09:17:55;3.45;;;1.42;;
21681;SDS011;11002;48.256;10.084;2022-07-18T09:20:23;2.97;;;1.58;;
21681;SDS011;11002;48.256;10.084;2022-07-18T09:22:52;3.20;;;1.38;;
21681;SDS011;11002;48.256;10.084;2022-07-18T09:25:20;1.88;;;1.20;;
21681;SDS011;11002;48.256;10.084;2022-07-18T09:27:50;4.38;;;1.55;;
21681;SDS011;11002;48.256;10.084;2022-07-18T09:30:20;2.33;;;1.55;;
21681;SDS011;11002;48.256;10.084;2022-07-18T09:32:50;2.35;;;1.35;;
21681;SDS011;11002;48.256;10.084;2022-07-18T09:35:20;1.63;;;1.23;;
21681;SDS011;11002;48.256;10.084;2022-07-18T09:37:55;1.15;;;1.05;;
21681;SDS011;11002;48.256;10.084;2022-07-18T09:40:28;1.60;;;1.30;;
21681;SDS011;11002;48.256;10.084;2022-07-18T09:42:58;2.28;;;1.40;;
21681;SDS011;11002;48.256;10.084;2022-07-18T09:45:27;1.90;;;1.48;;
21681;SDS011;11002;48.256;10.084;2022-07-18T09:47:57;3.10;;;1.30;;
21681;SDS011;11002;48.256;10.084;2022-07-18T09:50:26;1.10;;;1.00;;
21681;SDS011;11002;48.256;10.084;2022-07-18T09:52:58;1.42;;;1.20;;
21681;SDS011;11002;48.256;10.084;2022-07-18T09:55:30;2.13;;;1.10;;
21681;SDS011;11002;48.256;10.084;2022-07-18T09:57:59;1.55;;;1.10;;
21681;SDS011;11002;48.256;10.084;2022-07-18T10:00:29;3.00;;;1.25;;
21681;SDS011;11002;48.256;10.084;2022-07-18T10:02:59;2.88;;;1.35;;
21681;SDS011;11002;48.256;10.084;2022-07-18T10:05:27;1.13;;;1.02;;
21681;SDS011;11002;48.256;10.084;2022-07-18T10:07:57;1.48;;;1.10;;
21681;SDS011;11002;48.256;10.084;2022-07-18T10:10:26;4.68;;;1.50;;
21681;SDS011;11002;48.256;10.084;2022-07-18T10:12:55;2.35;;;1.00;;
21681;SDS011;11002;48.256;10.084;2022-07-18T10:15:24;3.38;;;1.17;;
21681;SDS011;11002;48.256;10.084;2022-07-18T10:17:53;1.48;;;1.20;;
21681;SDS011;11002;48.256;10.084;2022-07-18T10:20:25;2.20;;;1.42;;
21681;SDS011;11002;48.256;10.084;2022-07-18T10:22:56;1.83;;;1.17;;
21681;SDS011;11002;48.256;10.084;2022-07-18T10:25:27;2.35;;;1.10;;
21681;SDS011;11002;48.256;10.084;2022-07-18T10:28:01;1.75;;;1.45;;
21681;SDS011;11002;48.256;10.084;2022-07-18T10:30:32;2.67;;;1.10;;
21681;SDS011;11002;48.256;10.084;2022-07-18T10:33:02;2.47;;;1.15;;
21681;SDS011;11002;48.256;10.084;2022-07-18T10:38:28;1.25;;;1.15;;
21681;SDS011;11002;48.256;10.084;2022-07-18T10:41:06;2.13;;;1.00;;
21681;SDS011;11002;48.256;10.084;2022-07-18T10:43:39;2.45;;;1.08;;
21681;SDS011;11002;48.256;10.084;2022-07-18T10:46:08;2.70;;;1.05;;
21681;SDS011;11002;48.256;10.084;2022-07-18T10:48:46;1.95;;;1.00;;
21681;SDS011;11002;48.256;10.084;2022-07-18T10:51:19;1.20;;;0.93;;
21681;SDS011;11002;48.256;10.084;2022-07-18T10:54:11;2.05;;;0.90;;
21681;SDS011;11002;48.256;10.084;2022-07-18T10:59:33;1.10;;;1.00;;
21681;SDS011;11002;48.256;10.084;2022-07-18T11:02:03;1.40;;;1.13;;
21681;SDS011;11002;48.256;10.084;2022-07-18T11:04:34;1.25;;;1.10;;
21681;SDS011;11002;48.256;10.084;2022-07-18T11:07:04;1.75;;;1.00;;
21681;SDS011;11002;48.256;10.084;2022-07-18T11:09:38;1.20;;;1.00;;
21681;SDS011;11002;48.256;10.084;2022-07-18T11:12:21;1.23;;;1.00;;
21681;SDS011;11002;48.256;10.084;2022-07-18T11:15:09;1.60;;;1.20;;
21681;SDS011;11002;48.256;10.084;2022-07-18T11:23:16;1.63;;;1.15;;
21681;SDS011;11002;48.256;10.084;2022-07-18T11:25:47;2.03;;;1.33;;
21681;SDS011;11002;48.256;10.084;2022-07-18T11:28:16;1.67;;;0.90;;
21681;SDS011;11002;48.256;10.084;2022-07-18T11:30:45;1.20;;;0.90;;
21681;SDS011;11002;48.256;10.084;2022-07-18T11:33:22;1.08;;;0.98;;
21681;SDS011;11002;48.256;10.084;2022-07-18T11:35:51;1.60;;;1.02;;
21681;SDS011;11002;48.256;10.084;2022-07-18T11:38:19;1.08;;;0.93;;
21681;SDS011;11002;48.256;10.084;2022-07-18T11:40:49;0.80;;;0.80;;
21681;SDS011;11002;48.256;10.084;2022-07-18T11:43:21;1.30;;;0.90;;
21681;SDS011;11002;48.256;10.084;2022-07-18T11:45:58;1.13;;;1.02;;
21681;SDS011;11002;48.256;10.084;2022-07-18T11:48:30;1.60;;;1.17;;
21681;SDS011;11002;48.256;10.084;2022-07-18T11:50:57;1.10;;;0.90;;
21681;SDS011;11002;48.256;10.084;2022-07-18T11:53:25;1.45;;;0.90;;
21681;SDS011;11002;48.256;10.084;2022-07-18T11:55:54;0.80;;;0.70;;
21681;SDS011;11002;48.256;10.084;2022-07-18T11:58:22;1.50;;;1.00;;
21681;SDS011;11002;48.256;10.084;2022-07-18T12:00:50;1.30;;;1.17;;
21681;SDS011;11002;48.256;10.084;2022-07-18T12:03:17;2.67;;;1.00;;
21681;SDS011;11002;48.256;10.084;2022-07-18T12:05:48;1.48;;;1.00;;
21681;SDS011;11002;48.256;10.084;2022-07-18T12:08:30;1.10;;;1.00;;
21681;SDS011;11002;48.256;10.084;2022-07-18T12:11:07;1.13;;;0.80;;
21681;SDS011;11002;48.256;10.084;2022-07-18T12:13:41;1.42;;;1.00;;
21681;SDS011;11002;48.256;10.084;2022-07-18T12:16:21;1.13;;;1.02;;
21681;SDS011;11002;48.256;10.084;2022-07-18T12:18:56;0.80;;;0.80;;
21681;SDS011;11002;48.256;10.084;2022-07-18T12:21:30;1.98;;;0.77;;
21681;SDS011;11002;48.256;10.084;2022-07-18T12:27:10;1.15;;;0.93;;
21681;SDS011;11002;48.256;10.084;2022-07-18T12:29:56;1.00;;;0.90;;
21681;SDS011;11002;48.256;10.084;2022-07-18T12:32:42;0.95;;;0.90;;
21681;SDS011;11002;48.256;10.084;2022-07-18T12:37:50;0.95;;;0.90;;
21681;SDS011;11002;48.256;10.084;2022-07-18T12:40:19;0.77;;;0.77;;
21681;SDS011;11002;48.256;10.084;2022-07-18T12:42:48;0.70;;;0.70;;
21681;SDS011;11002;48.256;10.084;2022-07-18T12:45:16;1.30;;;0.98;;
21681;SDS011;11002;48.256;10.084;2022-07-18T12:47:43;0.80;;;0.73;;
21681;SDS011;11002;48.256;10.084;2022-07-18T12:50:10;1.02;;;0.93;;
21681;SDS011;11002;48.256;10.084;2022-07-18T12:52:38;0.70;;;0.70;;
21681;SDS011;11002;48.256;10.084;2022-07-18T12:55:06;1.10;;;0.90;;
21681;SDS011;11002;48.256;10.084;2022-07-18T12:57:34;1.38;;;0.85;;
21681;SDS011;11002;48.256;10.084;2022-07-18T13:00:03;1.23;;;0.98;;
21681;SDS011;11002;48.256;10.084;2022-07-18T13:02:31;0.75;;;0.70;;
21681;SDS011;11002;48.256;10.084;2022-07-18T13:04:58;0.80;;;0.80;;
21681;SDS011;11002;48.256;10.084;2022-07-18T13:07:26;1.05;;;0.90;;
21681;SDS011;11002;48.256;10.084;2022-07-18T13:09:53;1.10;;;0.73;;
21681;SDS011;11002;48.256;10.084;2022-07-18T13:12:20;0.82;;;0.82;;
21681;SDS011;11002;48.256;10.084;2022-07-18T13:14:48;1.33;;;0.95;;
21681;SDS011;11002;48.256;10.084;2022-07-18T13:17:17;0.95;;;0.80;;
21681;SDS011;11002;48.256;10.084;2022-07-18T13:19:44;1.25;;;1.00;;
21681;SDS011;11002;48.256;10.084;2022-07-18T13:22:12;1.63;;;0.93;;
21681;SDS011;11002;48.256;10.084;2022-07-18T13:24:39;0.68;;;0.68;;
21681;SDS011;11002;48.256;10.084;2022-07-18T13:27:06;0.68;;;0.63;;
21681;SDS011;11002;48.256;10.084;2022-07-18T13:29:34;0.70;;;0.70;;
21681;SDS011;11002;48.256;10.084;2022-07-18T13:32:02;1.23;;;0.85;;
21681;SDS011;11002;48.256;10.084;2022-07-18T13:34:31;1.40;;;0.80;;
21681;SDS011;11002;48.256;10.084;2022-07-18T13:36:58;1.02;;;0.93;;
21681;SDS011;11002;48.256;10.084;2022-07-18T13:39:25;0.60;;;0.60;;
21681;SDS011;11002;48.256;10.084;2022-07-18T13:41:53;1.52;;;0.80;;
21681;SDS011;11002;48.256;10.084;2022-07-18T13:44:20;0.82;;;0.82;;
21681;SDS011;11002;48.256;10.084;2022-07-18T13:46:48;0.70;;;0.70;;
21681;SDS011;11002;48.256;10.084;2022-07-18T13:49:15;1.10;;;1.00;;
21681;SDS011;11002;48.256;10.084;2022-07-18T13:51:44;1.33;;;0.70;;
21681;SDS011;11002;48.256;10.084;2022-07-18T13:54:11;0.80;;;0.80;;
21681;SDS011;11002;48.256;10.084;2022-07-18T13:56:42;0.88;;;0.75;;
21681;SDS011;11002;48.256;10.084;2022-07-18T13:59:09;0.80;;;0.80;;
21681;SDS011;11002;48.256;10.084;2022-07-18T14:01:37;0.80;;;0.80;;
21681;SDS011;11002;48.256;10.084;2022-07-18T14:04:05;0.75;;;0.75;;
21681;SDS011;11002;48.256;10.084;2022-07-18T14:06:32;0.70;;;0.70;;
21681;SDS011;11002;48.256;10.084;2022-07-18T14:09:02;0.70;;;0.70;;
21681;SDS011;11002;48.256;10.084;2022-07-18T14:11:30;0.70;;;0.60;;
21681;SDS011;11002;48.256;10.084;2022-07-18T14:13:58;0.70;;;0.70;;
21681;SDS011;11002;48.256;10.084;2022-07-18T14:16:25;0.90;;;0.90;;
21681;SDS011;11002;48.256;10.084;2022-07-18T14:18:53;0.90;;;0.90;;
21681;SDS011;11002;48.256;10.084;2022-07-18T14:21:20;0.80;;;0.80;;
21681;SDS011;11002;48.256;10.084;2022-07-18T14:23:48;0.90;;;0.90;;
21681;SDS011;11002;48.256;10.084;2022-07-18T14:26:18;0.88;;;0.70;;
21681;SDS011;11002;48.256;10.084;2022-07-18T14:28:45;1.08;;;0.75;;
21681;SDS011;11002;48.256;10.084;2022-07-18T14:31:13;0.98;;;0.80;;
21681;SDS011;11002;48.256;10.084;2022-07-18T14:33:40;1.90;;;0.63;;
21681;SDS011;11002;48.256;10.084;2022-07-18T14:36:08;0.93;;;0.70;;
21681;SDS011;11002;48.256;10.084;2022-07-18T14:38:35;0.95;;;0.80;;
21681;SDS011;11002;48.256;10.084;2022-07-18T14:41:03;1.38;;;0.88;;
21681;SDS011;11002;48.256;10.084;2022-07-18T14:43:31;0.73;;;0.73;;
21681;SDS011;11002;48.256;10.084;2022-07-18T14:45:59;0.85;;;0.75;;
21681;SDS011;11002;48.256;10.084;2022-07-18T14:48:26;0.70;;;0.70;;
21681;SDS011;11002;48.256;10.084;2022-07-18T14:50:54;0.70;;;0.70;;
21681;SDS011;11002;48.256;10.084;2022-07-18T14:53:21;0.90;;;0.90;;
21681;SDS011;11002;48.256;10.084;2022-07-18T14:55:48;0.70;;;0.70;;
21681;SDS011;11002;48.256;10.084;2022-07-18T14:58:16;0.88;;;0.88;;
21681;SDS011;11002;48.256;10.084;2022-07-18T15:00:45;1.10;;;0.82;;
21681;SDS011;11002;48.256;10.084;2022-07-18T15:03:12;1.83;;;0.77;;